Fort Jackson, South Carolina
Current Conditions -  °F | °C
As of 5:53 PM on Sunday 21 Dec 2014 (Local Time) from KCUB Reporting Station
Overcast Overcast  
Wind Chill: 52°   Ceiling: 5500
Heat Index: 52°   Visibility: 10mi
Dew Point: 40°   Wind: 5mph
Humidity: 63%   Direction: 70°ENE
Pressure: 30.17"   Gusts: NA
Location:  34.0229°N, 80.929°W
Report Text: KCUB 212253Z AUTO 07004KT 10SM SCT035 OVC055 11/04 A3017 RMK AO2 SLP217 T01110044
Loading
Personal Weather Stations






























Interactive Weather Map New forecast layout! Learn more

10-Day Weather Forecast

Advertisements
Track Severe Weather on mobile